Tuesday, January 23, 2018, 7:17 AM EST
Back to Local

KSNC, Chester, Chester Airport

Location: Chester, CT, United States Lat: 41.384
Local Time: 7:17 AM EST (12:17 GMT) Lon: -72.506
Time Zone: US/Eastern Elev: 416 ft

Show me the last for .
Show Coded

Time T Td Feel RH Dir Speed Gust Alt SLP Vis Weather Sky Remarks
2018-01-23 06:55 45 45 43 100 130° 3 - 29.87 - 0 FG OVC001 None
2018-01-23 06:35 43 43 41 100 130° 3 - 29.88 - 0 FG OVC001 None
2018-01-23 06:15 43 43 - 100 - Calm - 29.89 - 0 FG OVC001 None
2018-01-23 05:55 43 43 - 100 - Calm - 29.91 - 0 FG OVC001 None
2018-01-23 05:35 41 41 - 100 - Calm - 29.91 - 0 FG OVC001 None
2018-01-23 05:15 43 41 - 93 - Calm - 29.91 - 0 FG OVC001 None
2018-01-23 04:55 43 41 - 93 - Calm - 29.94 - 0 FG OVC001 None
2018-01-23 04:35 41 41 - 100 - Calm - 29.94 - 0 FG OVC001 None
2018-01-23 04:15 43 41 - 93 - Calm - 29.95 - 0 FG OVC001 None
2018-01-23 03:55 41 41 - 100 - Calm - 29.95 - 0 FG OVC001 None
2018-01-23 03:35 41 41 - 100 - Calm - 29.96 - 0 FG OVC001 None
2018-01-23 03:15 41 39 - 93 - Calm - 29.98 - 0 FG OVC001 None
2018-01-23 02:55 41 41 - 100 - Calm - 30.00 - 0 FG OVC001 None
2018-01-23 02:35 41 39 - 93 - Calm - 30.00 - 0 FG OVC001 None
2018-01-23 02:15 39 39 37 100 360° 3 - 30.02 - 0 FG OVC001 None
2018-01-23 01:55 41 39 - 93 - Calm - 30.03 - 0 FG OVC001 None
2018-01-23 01:35 41 39 - 93 - Calm - 30.04 - 0 FG OVC001 None
2018-01-23 01:15 41 39 - 93 - Calm - 30.05 - 0 FG OVC001 None
2018-01-23 00:55 39 39 - 100 - Calm - 30.06 - 0 FG OVC001 None
2018-01-23 00:35 39 39 - 100 - Calm - 30.08 - 0 FG OVC001 None
2018-01-23 00:15 39 39 - 100 - Calm - 30.09 - 0 FG OVC001 None
2018-01-22 23:55 39 39 - 100 - Calm - 30.09 - 0 FG OVC001 None
2018-01-22 23:35 39 39 - 100 - Calm - 30.09 - 0 FG OVC001 None
2018-01-22 23:15 39 39 - 100 - Calm - 30.10 - 0 FG OVC001 None
2018-01-22 22:55 39 39 36 100 70° 5 - 30.10 - 0 FG OVC001 None
2018-01-22 22:35 39 39 36 100 80° 5 - 30.11 - 0 FG OVC001 None
2018-01-22 22:15 39 39 36 100 90° 5 - 30.12 - 0 BR OVC001 None
2018-01-22 21:55 39 39 36 100 Variable 5 - 30.13 - 1 BR OVC001 None
2018-01-22 21:35 39 39 34 100 80° 7 - 30.14 - 3 BR OVC003 None
2018-01-22 21:15 39 37 34 93 90° 7 - 30.15 - 4 BR OVC003 None
2018-01-22 20:55 39 37 35 93 80° 6 - 30.16 - 5 BR OVC004 None
2018-01-22 20:35 39 37 36 93 80° 5 - 30.16 - 6 BR OVC004 None
2018-01-22 20:15 41 37 36 86 80° 8 - 30.17 - 6 BR OVC005 None
2018-01-22 19:55 41 37 35 86 90° 9 - 30.17 - 7 OVC005 None
2018-01-22 19:35 41 37 34 86 90° 6 13 30.17 - 7 OVC006 None
2018-01-22 19:15 41 37 36 86 90° 7 - 30.18 - 8 OVC007 None
2018-01-22 18:55 41 37 33 86 90° 7 14 30.18 - 8 OVC007 None
2018-01-22 18:35 41 37 36 86 80° 7 - 30.18 - 7 OVC008 None
2018-01-22 18:15 41 37 35 86 80° 9 - 30.17 - 7 OVC007 None
2018-01-22 17:55 41 37 36 86 90° 7 - 30.18 - 6 BR OVC007 None
2018-01-22 17:35 41 37 37 86 90° 6 - 30.18 - 7 OVC007 None
2018-01-22 17:15 41 37 8 86 541° 768 - 30.18 - 7 OVC008 None
2018-01-22 16:55 41 37 34 86 Variable 6 13 30.18 - 6 BR OVC008 None
2018-01-22 16:35 41 37 34 86 80° 6 13 30.17 - 6 BR OVC008 None
2018-01-22 16:15 43 39 38 86 70° 8 - 30.17 - 6 BR OVC008 None
2018-01-22 15:55 43 39 40 86 Variable 5 - 30.17 - 6 BR OVC007 None
2018-01-22 15:35 43 39 39 86 80° 6 - 30.17 - 6 BR OVC007 None
2018-01-22 15:15 43 39 38 86 90° 8 - 30.18 - 5 BR OVC007 None
2018-01-22 14:55 43 39 39 86 90° 6 - 30.17 - 5 BR OVC007 None
2018-01-22 14:35 43 39 38 86 70° 8 - 30.17 - 5 BR OVC007 None
2018-01-22 13:55 43 39 39 86 70° 7 - 30.17 - 5 BR OVC007 None
2018-01-22 13:35 43 39 40 86 60° 5 - 30.18 - 7 OVC008 None
2018-01-22 13:15 43 39 39 86 60° 6 - 30.17 - 8 OVC007 None
2018-01-22 12:55 43 39 39 86 40° 6 - 30.18 - 7 OVC007 None
2018-01-22 12:35 43 39 40 86 70° 5 - 30.17 - 6 BR OVC007 None
2018-01-22 12:15 43 39 - 86 - Calm - 30.19 - 6 BR OVC007 None
2018-01-22 11:55 43 39 40 86 80° 5 - 30.20 - 7 OVC009 None
2018-01-22 11:35 43 39 - 86 - Calm - 30.19 - 7 OVC009 None
2018-01-22 11:15 43 39 41 86 Variable 3 - 30.20 - 7 OVC010 None
2018-01-22 10:55 43 39 40 86 100° 5 - 30.21 - 6 BR OVC011 None
2018-01-22 10:35 41 37 38 86 60° 5 - 30.21 - 5 BR OVC011 None
2018-01-22 10:15 41 37 - 86 - Calm - 30.22 - 5 BR OVC012 None
2018-01-22 09:55 41 37 - 86 - Calm - 30.23 - 5 BR OVC012 None
2018-01-22 09:35 39 37 37 93 20° 3 - 30.22 - 5 BR OVC012 None
2018-01-22 09:15 39 37 - 93 - Calm - 30.22 - 4 BR OVC012 None
2018-01-22 08:55 39 37 - 93 - Calm - 30.22 - 3 BR OVC012 None
2018-01-22 08:35 39 37 - 93 - Calm - 30.21 - 4 BR OVC013 None
2018-01-22 08:15 39 37 - 93 - Calm - 30.19 - 3 BR OVC015 None
2018-01-22 07:55 37 36 34 93 110° 5 - 30.19 - 3 BR OVC018 None
2018-01-22 07:35 37 36 - 93 - Calm - 30.19 - 3 BR BKN020 OVC026 None

Support USWX by starting your Amazon purchase here.